createdAt,value
2018-05-16T00:00:56.346Z,11.50
2018-05-16T00:01:56.394Z,11.50
2018-05-16T00:02:56.392Z,11.30
2018-05-16T00:03:56.426Z,11.30
2018-05-16T00:04:56.459Z,11.80
2018-05-16T00:05:56.493Z,11.60
2018-05-16T00:06:56.525Z,11.00
2018-05-16T00:07:56.558Z,9.60
2018-05-16T00:08:56.594Z,11.60
2018-05-16T00:09:56.625Z,12.00
2018-05-16T00:10:56.658Z,11.10
2018-05-16T00:11:56.694Z,12.00
2018-05-16T00:12:56.724Z,14.20
2018-05-16T00:13:56.758Z,11.10
2018-05-16T00:14:56.789Z,10.70
2018-05-16T00:15:56.822Z,11.70
2018-05-16T00:16:56.856Z,11.60
2018-05-16T00:17:57.107Z,10.30
2018-05-16T00:18:56.939Z,11.10
2018-05-16T00:19:56.955Z,10.90
2018-05-16T00:20:57.008Z,12.30
2018-05-16T00:21:57.038Z,14.20
2018-05-16T00:22:57.054Z,11.40
2018-05-16T00:24:57.144Z,12.40
2018-05-16T00:25:57.151Z,13.10
2018-05-16T00:27:57.236Z,11.70
2018-05-16T00:28:57.250Z,12.70
2018-05-16T00:29:57.283Z,12.90
2018-05-16T00:31:57.652Z,10.60
2018-05-16T00:32:57.384Z,9.60
2018-05-16T00:33:57.417Z,11.90
2018-05-16T00:34:57.446Z,11.80
2018-05-16T00:35:57.479Z,13.60
2018-05-16T00:36:57.512Z,12.10
2018-05-16T00:37:57.545Z,10.40
2018-05-16T00:38:57.598Z,11.20
2018-05-16T00:39:57.628Z,12.10
2018-05-16T00:41:57.698Z,10.00
2018-05-16T00:42:57.726Z,11.40
2018-05-16T00:43:58.270Z,10.20
2018-05-16T00:44:57.772Z,11.00
2018-05-16T00:45:58.333Z,12.90
2018-05-16T00:46:57.856Z,10.90
2018-05-16T00:47:57.894Z,10.80
2018-05-16T00:48:57.926Z,10.70
2018-05-16T00:50:57.985Z,10.80
2018-05-16T00:51:58.021Z,10.40
2018-05-16T00:52:58.051Z,9.40
2018-05-16T00:53:58.066Z,11.30
2018-05-16T00:54:58.098Z,11.30
2018-05-16T00:55:58.129Z,11.10
2018-05-16T00:56:58.188Z,10.00
2018-05-16T00:57:58.195Z,11.70
2018-05-16T00:58:58.226Z,9.90
2018-05-16T00:59:58.260Z,11.00
2018-05-16T01:00:58.292Z,9.80
2018-05-16T01:01:58.325Z,11.50
2018-05-16T01:02:58.357Z,11.10
2018-05-16T01:03:58.405Z,11.50
2018-05-16T01:04:58.426Z,11.00
2018-05-16T01:05:58.879Z,10.50
2018-05-16T01:06:58.505Z,11.70
2018-05-16T01:08:58.754Z,10.90
2018-05-16T01:09:58.990Z,11.70
2018-05-16T01:10:58.636Z,10.80
2018-05-16T01:11:58.667Z,10.90
2018-05-16T01:12:58.701Z,10.20
2018-05-16T01:13:58.716Z,9.70
2018-05-16T01:14:58.764Z,10.00
2018-05-16T01:15:58.779Z,11.00
2018-05-16T01:16:58.814Z,10.70
2018-05-16T01:17:58.863Z,10.60
2018-05-16T01:18:59.077Z,10.60
2018-05-16T01:19:59.111Z,10.70
2018-05-16T01:20:58.941Z,10.30
2018-05-16T01:21:59.176Z,9.00
2018-05-16T01:22:59.027Z,10.00
2018-05-16T01:23:59.443Z,10.20
2018-05-16T01:24:59.090Z,9.60
2018-05-16T01:25:59.124Z,9.50
2018-05-16T01:26:59.162Z,9.70
2018-05-16T01:27:59.265Z,9.10
2018-05-16T01:28:59.219Z,9.90
2018-05-16T01:29:59.234Z,9.60
2018-05-16T01:31:59.298Z,9.50
2018-05-16T01:32:59.333Z,9.10
2018-05-16T01:33:59.566Z,10.50
2018-05-16T01:34:59.416Z,9.80
2018-05-16T01:35:59.631Z,9.10
2018-05-16T01:36:59.787Z,16.20
2018-05-16T01:37:59.494Z,8.60
2018-05-16T01:38:59.544Z,9.30
2018-05-16T01:39:59.594Z,9.40
2018-05-16T01:40:59.917Z,10.20
2018-05-16T01:41:59.624Z,10.10
2018-05-16T01:43:59.916Z,10.00
2018-05-16T01:45:59.771Z,9.20
2018-05-16T01:46:59.807Z,9.10
2018-05-16T01:47:59.840Z,11.10
2018-05-16T01:48:59.851Z,9.60
2018-05-16T01:49:59.903Z,10.10
2018-05-16T01:50:59.933Z,10.00
2018-05-16T01:51:59.948Z,10.20
2018-05-16T01:53:00.205Z,10.50
2018-05-16T01:54:00.035Z,9.70
2018-05-16T01:55:00.065Z,9.90
2018-05-16T01:56:00.099Z,10.10
2018-05-16T01:57:00.434Z,10.20
2018-05-16T01:58:00.468Z,10.50
2018-05-16T01:59:00.904Z,10.00
2018-05-16T02:00:00.229Z,9.90
2018-05-16T02:01:00.259Z,9.50
2018-05-16T02:02:00.291Z,9.90
2018-05-16T02:03:00.304Z,10.20
2018-05-16T02:04:00.539Z,10.20
2018-05-16T02:05:00.390Z,10.50
2018-05-16T02:06:00.403Z,11.10
2018-05-16T02:07:00.455Z,9.80
2018-05-16T02:08:00.466Z,10.60
2018-05-16T02:09:00.499Z,11.20
2018-05-16T02:10:00.553Z,11.00
2018-05-16T02:11:00.562Z,18.60
2018-05-16T02:12:00.595Z,12.10
2018-05-16T02:13:00.848Z,10.50
2018-05-16T02:14:00.659Z,10.80
2018-05-16T02:15:00.692Z,10.30
2018-05-16T02:16:00.946Z,11.60
2018-05-16T02:17:00.774Z,11.00
2018-05-16T02:18:00.806Z,10.60
2018-05-16T02:19:00.840Z,12.20
2018-05-16T02:20:00.878Z,11.60
2018-05-16T02:22:00.938Z,11.70
2018-05-16T02:24:01.008Z,11.80
2018-05-16T02:25:01.237Z,10.70
2018-05-16T02:26:01.066Z,11.30
2018-05-16T02:29:01.163Z,12.20
2018-05-16T02:30:01.706Z,12.10
2018-05-16T02:31:01.431Z,11.70
2018-05-16T02:33:01.493Z,11.70
2018-05-16T02:36:01.391Z,12.90
2018-05-16T02:37:01.429Z,10.40
2018-05-16T02:38:01.764Z,13.60
2018-05-16T02:40:01.525Z,11.10
2018-05-16T02:41:01.552Z,10.40
2018-05-16T02:42:01.985Z,10.50
2018-05-16T02:43:01.609Z,9.70
2018-05-16T02:44:01.949Z,9.70
2018-05-16T02:45:01.678Z,10.40
2018-05-16T02:48:01.752Z,12.10
2018-05-16T02:49:01.786Z,11.60
2018-05-16T02:50:01.817Z,11.40
2018-05-16T02:51:01.848Z,10.70
2018-05-16T02:52:01.883Z,9.90
2018-05-16T02:53:01.914Z,11.40
2018-05-16T02:54:01.945Z,11.50
2018-05-16T02:55:01.977Z,10.80
2018-05-16T02:56:02.008Z,9.50
2018-05-16T02:57:02.044Z,11.00
2018-05-16T02:58:02.072Z,13.00
2018-05-16T02:59:02.103Z,10.60
2018-05-16T03:00:02.135Z,10.10
2018-05-16T03:01:02.169Z,9.90
2018-05-16T03:02:02.199Z,9.50
2018-05-16T03:03:02.250Z,10.10
2018-05-16T03:04:02.470Z,9.70
2018-05-16T03:06:02.328Z,10.80
2018-05-16T03:07:02.582Z,16.30
2018-05-16T03:08:02.390Z,10.80
2018-05-16T03:09:02.425Z,13.70
2018-05-16T03:10:02.657Z,11.20
2018-05-16T03:11:02.713Z,11.60
2018-05-16T03:12:02.518Z,9.90
2018-05-16T03:13:02.551Z,10.70
2018-05-16T03:14:02.583Z,9.70
2018-05-16T03:15:02.614Z,10.80
2018-05-16T03:16:02.646Z,11.00
2018-05-16T03:17:02.695Z,10.20
2018-05-16T03:19:02.740Z,10.40
2018-05-16T03:20:03.097Z,11.90
2018-05-16T03:21:03.031Z,10.20
2018-05-16T03:23:03.398Z,9.90
2018-05-16T03:24:02.902Z,10.70
2018-05-16T03:25:02.932Z,10.40
2018-05-16T03:26:02.966Z,9.50
2018-05-16T03:27:02.995Z,10.60
2018-05-16T03:28:03.027Z,10.40
2018-05-16T03:29:03.059Z,9.90
2018-05-16T03:30:03.093Z,10.90
2018-05-16T03:31:03.123Z,10.70
2018-05-16T03:32:03.154Z,11.20
2018-05-16T03:33:03.186Z,10.80
2018-05-16T03:34:03.219Z,11.20
2018-05-16T03:35:03.250Z,10.90
2018-05-16T03:36:03.282Z,11.60
2018-05-16T03:37:03.314Z,11.80
2018-05-16T03:38:03.346Z,11.00
2018-05-16T03:39:03.378Z,10.60
2018-05-16T03:40:03.408Z,9.40
2018-05-16T03:41:03.441Z,10.60
2018-05-16T03:42:03.473Z,10.10
2018-05-16T03:43:03.505Z,9.00
2018-05-16T03:44:03.538Z,10.50
2018-05-16T03:45:03.569Z,9.30
2018-05-16T03:46:03.601Z,9.50
2018-05-16T03:47:03.839Z,13.30
2018-05-16T03:48:03.664Z,9.90
2018-05-16T03:49:03.696Z,8.90
2018-05-16T03:50:03.728Z,9.20
2018-05-16T03:51:03.759Z,9.60
2018-05-16T03:52:03.874Z,10.20
2018-05-16T03:53:03.823Z,9.50
2018-05-16T03:54:03.857Z,9.10
2018-05-16T03:55:03.887Z,10.10
2018-05-16T03:56:03.920Z,9.30
2018-05-16T03:57:03.951Z,11.80
2018-05-16T03:58:03.984Z,10.90
2018-05-16T03:59:04.015Z,10.50
2018-05-16T04:00:04.048Z,9.40
2018-05-16T04:01:04.082Z,9.70
2018-05-16T04:02:04.113Z,9.30
2018-05-16T04:03:04.143Z,8.80
2018-05-16T04:04:04.176Z,9.30
2018-05-16T04:05:04.207Z,9.10
2018-05-16T04:06:04.241Z,9.20
2018-05-16T04:07:04.271Z,9.20
2018-05-16T04:08:04.304Z,9.40
2018-05-16T04:09:04.337Z,10.20
2018-05-16T04:10:04.369Z,9.20
2018-05-16T04:11:04.399Z,9.50
2018-05-16T04:12:04.433Z,9.40
2018-05-16T04:13:04.466Z,9.50
2018-05-16T04:14:04.503Z,9.70
2018-05-16T04:15:04.529Z,8.60
2018-05-16T04:16:04.561Z,9.80
2018-05-16T04:17:04.593Z,9.10
2018-05-16T04:18:04.626Z,9.70
2018-05-16T04:19:04.658Z,10.20
2018-05-16T04:20:04.895Z,9.60
2018-05-16T04:21:04.725Z,9.60
2018-05-16T04:22:04.753Z,9.70
2018-05-16T04:23:04.785Z,9.90
2018-05-16T04:24:04.820Z,9.10
2018-05-16T04:25:04.855Z,8.30
2018-05-16T04:26:04.884Z,9.00
2018-05-16T04:27:04.915Z,10.20
2018-05-16T04:28:04.948Z,11.10
2018-05-16T04:29:04.980Z,11.10
2018-05-16T04:30:05.012Z,9.20
2018-05-16T04:31:05.048Z,8.30
2018-05-16T04:32:05.076Z,8.50
2018-05-16T04:33:05.109Z,8.70
2018-05-16T04:34:05.141Z,10.80
2018-05-16T04:35:05.174Z,11.10
2018-05-16T04:36:05.206Z,10.40
2018-05-16T04:37:05.237Z,9.00
2018-05-16T04:38:05.271Z,8.80
2018-05-16T04:39:05.301Z,10.20
2018-05-16T04:40:05.537Z,10.40
2018-05-16T04:41:05.370Z,11.40
2018-05-16T04:42:05.399Z,12.40
2018-05-16T04:43:05.431Z,11.60
2018-05-16T04:44:05.464Z,13.00
2018-05-16T04:45:05.517Z,13.30
2018-05-16T04:46:05.531Z,12.20
2018-05-16T04:47:05.560Z,13.20
2018-05-16T04:48:05.593Z,13.90
2018-05-16T04:49:05.626Z,12.40
2018-05-16T04:50:05.659Z,13.50
2018-05-16T04:51:05.690Z,13.70
2018-05-16T04:52:05.721Z,14.50
2018-05-16T04:53:05.755Z,21.30
2018-05-16T04:54:05.787Z,14.70
2018-05-16T04:55:05.819Z,14.90
2018-05-16T04:56:05.851Z,14.40
2018-05-16T04:57:05.883Z,14.50
2018-05-16T04:58:05.917Z,14.10
2018-05-16T04:59:06.044Z,13.90
2018-05-16T05:00:05.980Z,13.10
2018-05-16T05:01:06.015Z,14.30
2018-05-16T05:02:06.046Z,14.40
2018-05-16T05:03:06.079Z,14.20
2018-05-16T05:04:06.111Z,13.60
2018-05-16T05:05:06.147Z,13.70
2018-05-16T05:06:06.177Z,12.40
2018-05-16T05:07:06.210Z,13.10
2018-05-16T05:08:06.242Z,12.80
2018-05-16T05:09:06.278Z,12.00
2018-05-16T05:10:06.310Z,14.50
2018-05-16T05:11:06.339Z,13.70
2018-05-16T05:12:06.378Z,13.10
2018-05-16T05:13:06.413Z,13.80
2018-05-16T05:14:06.437Z,13.00
2018-05-16T05:15:06.470Z,14.00
2018-05-16T05:16:06.503Z,13.00
2018-05-16T05:17:06.536Z,13.10
2018-05-16T05:18:06.620Z,12.40
2018-05-16T05:19:06.602Z,12.00
2018-05-16T05:20:06.635Z,12.90
2018-05-16T05:21:06.668Z,14.00
2018-05-16T05:22:06.701Z,13.80
2018-05-16T05:23:06.734Z,15.90
2018-05-16T05:24:06.799Z,14.20
2018-05-16T05:25:06.800Z,13.90
2018-05-16T05:26:07.035Z,14.30
2018-05-16T05:27:06.866Z,16.60
2018-05-16T05:28:06.902Z,18.50
2018-05-16T05:29:06.934Z,15.10
2018-05-16T05:30:06.965Z,15.10
2018-05-16T05:31:06.997Z,14.50
2018-05-16T05:32:07.030Z,16.00
2018-05-16T05:33:07.064Z,16.00
2018-05-16T05:34:07.096Z,16.40
2018-05-16T05:35:07.129Z,16.00
2018-05-16T05:36:07.163Z,16.90
2018-05-16T05:37:07.196Z,18.40
2018-05-16T05:38:07.227Z,18.00
2018-05-16T05:39:07.260Z,16.90
2018-05-16T05:40:07.293Z,19.40
2018-05-16T05:41:07.327Z,16.70
2018-05-16T05:42:07.359Z,14.20
2018-05-16T05:43:07.392Z,15.00
2018-05-16T05:44:07.425Z,14.80
2018-05-16T05:45:07.458Z,16.20
2018-05-16T05:46:07.492Z,17.70
2018-05-16T05:47:07.523Z,15.80
2018-05-16T05:48:07.556Z,17.00
2018-05-16T05:49:07.625Z,23.30
2018-05-16T05:50:07.624Z,15.80
2018-05-16T05:51:07.655Z,21.60
2018-05-16T05:52:07.708Z,15.80
2018-05-16T05:53:07.722Z,15.40
2018-05-16T05:54:07.755Z,18.30
2018-05-16T05:55:07.788Z,17.80
2018-05-16T05:56:07.822Z,15.80
2018-05-16T05:57:07.853Z,14.60
2018-05-16T05:58:07.891Z,13.60
2018-05-16T05:59:07.919Z,14.30
2018-05-16T06:00:08.020Z,13.80
2018-05-16T06:01:07.984Z,12.70
2018-05-16T06:02:08.035Z,14.70
2018-05-16T06:03:08.050Z,15.40
2018-05-16T06:04:08.082Z,18.10
2018-05-16T06:05:08.117Z,13.30
2018-05-16T06:06:08.149Z,14.70
2018-05-16T06:07:08.182Z,13.10
2018-05-16T06:08:08.236Z,14.40
2018-05-16T06:09:08.248Z,21.70
2018-05-16T06:10:08.281Z,18.00
2018-05-16T06:11:08.313Z,14.40
2018-05-16T06:12:08.345Z,18.60
2018-05-16T06:13:08.380Z,18.60
2018-05-16T06:14:08.413Z,18.10
2018-05-16T06:15:08.445Z,17.60
2018-05-16T06:16:08.479Z,16.10
2018-05-16T06:17:08.513Z,17.80
2018-05-16T06:18:08.545Z,16.50
2018-05-16T06:19:08.577Z,16.90
2018-05-16T06:20:08.611Z,16.10
2018-05-16T06:21:08.644Z,16.50
2018-05-16T06:23:08.708Z,18.10
2018-05-16T06:24:08.744Z,16.70
2018-05-16T06:25:08.775Z,17.90
2018-05-16T06:26:08.808Z,17.80
2018-05-16T06:27:08.898Z,16.60
2018-05-16T06:28:08.873Z,16.70
2018-05-16T06:29:08.908Z,18.80
2018-05-16T06:30:08.941Z,16.00
2018-05-16T06:31:08.973Z,15.90
2018-05-16T06:32:09.007Z,17.20
2018-05-16T06:33:09.040Z,18.30
2018-05-16T06:34:09.074Z,17.40
2018-05-16T06:35:09.105Z,18.30
2018-05-16T06:36:09.140Z,17.40
2018-05-16T06:37:09.173Z,19.40
2018-05-16T06:38:09.206Z,23.30
2018-05-16T06:39:09.251Z,20.60
2018-05-16T06:40:09.272Z,20.60
2018-05-16T06:41:09.306Z,17.70
2018-05-16T06:42:09.339Z,19.50
2018-05-16T06:43:09.379Z,20.40
2018-05-16T06:44:09.405Z,21.70
2018-05-16T06:45:09.442Z,20.80
2018-05-16T06:46:09.471Z,19.40
2018-05-16T06:47:09.504Z,19.40
2018-05-16T06:48:09.536Z,19.50
2018-05-16T06:49:09.570Z,18.80
2018-05-16T06:50:09.621Z,19.40
2018-05-16T06:51:09.636Z,20.00
2018-05-16T06:52:09.670Z,18.20
2018-05-16T06:53:09.703Z,18.70
2018-05-16T06:54:09.738Z,17.20
2018-05-16T06:55:09.769Z,21.00
2018-05-16T06:56:09.804Z,21.60
2018-05-16T06:57:09.837Z,19.50
2018-05-16T06:58:09.870Z,19.70
2018-05-16T06:59:09.902Z,16.90
2018-05-16T07:00:09.936Z,17.60
2018-05-16T07:01:09.970Z,18.80
2018-05-16T07:02:10.002Z,20.50
2018-05-16T07:03:10.040Z,21.50
2018-05-16T07:04:10.127Z,19.40
2018-05-16T07:05:10.103Z,19.60
2018-05-16T07:06:10.217Z,20.30
2018-05-16T07:07:10.169Z,18.90
2018-05-16T07:08:10.202Z,19.50
2018-05-16T07:09:10.236Z,21.10
2018-05-16T07:10:10.272Z,23.40
2018-05-16T07:11:10.304Z,25.90
2018-05-16T07:12:10.335Z,27.90
2018-05-16T07:13:10.368Z,25.80
2018-05-16T07:14:10.403Z,27.30
2018-05-16T07:15:10.436Z,27.20
2018-05-16T07:16:10.469Z,28.00
2018-05-16T07:17:10.502Z,24.50
2018-05-16T07:18:10.537Z,22.10
2018-05-16T07:19:10.569Z,26.20
2018-05-16T07:20:10.603Z,24.60
2018-05-16T07:21:10.636Z,24.60
2018-05-16T07:22:10.672Z,20.50
2018-05-16T07:23:10.704Z,23.90
2018-05-16T07:24:10.736Z,24.60
2018-05-16T07:25:10.771Z,23.40
2018-05-16T07:26:10.803Z,34.90
2018-05-16T07:27:10.839Z,38.80
2018-05-16T07:28:10.871Z,25.10
2018-05-16T07:29:10.905Z,21.30
2018-05-16T07:30:10.938Z,21.10
2018-05-16T07:31:10.972Z,21.10
2018-05-16T07:32:11.004Z,19.10
2018-05-16T07:33:11.039Z,18.80
2018-05-16T07:34:11.072Z,18.50
2018-05-16T07:35:11.106Z,19.00
2018-05-16T07:36:11.140Z,19.80
2018-05-16T07:37:11.173Z,19.30
2018-05-16T07:38:11.207Z,18.30
2018-05-16T07:39:11.241Z,17.90
2018-05-16T07:40:11.275Z,17.00
2018-05-16T07:41:11.351Z,17.90
2018-05-16T07:42:11.343Z,18.90
2018-05-16T07:43:11.375Z,17.80
2018-05-16T07:44:11.410Z,19.00
2018-05-16T07:45:11.444Z,17.10
2018-05-16T07:46:11.480Z,18.90
2018-05-16T07:47:11.602Z,17.90
2018-05-16T07:48:11.546Z,18.30
2018-05-16T07:49:11.580Z,17.20
2018-05-16T07:50:11.616Z,16.40
2018-05-16T07:51:11.744Z,15.20
2018-05-16T07:52:11.685Z,15.10
2018-05-16T07:53:11.720Z,14.60
2018-05-16T07:54:11.755Z,14.50
2018-05-16T07:55:11.789Z,14.90
2018-05-16T07:56:11.823Z,15.20
2018-05-16T07:57:11.857Z,14.90
2018-05-16T07:58:11.893Z,15.40
2018-05-16T07:59:11.928Z,15.00
2018-05-16T08:00:11.963Z,14.60
2018-05-16T08:01:12.000Z,13.40
2018-05-16T08:02:12.033Z,13.80
2018-05-16T08:03:12.083Z,13.30
2018-05-16T08:04:12.104Z,13.40
2018-05-16T08:05:12.139Z,12.70
2018-05-16T08:06:12.175Z,12.90
2018-05-16T08:07:12.208Z,13.30
2018-05-16T08:08:12.245Z,13.50
2018-05-16T08:09:12.282Z,13.30
2018-05-16T08:10:12.316Z,13.10
2018-05-16T08:11:12.351Z,13.10
2018-05-16T08:12:12.428Z,12.60
2018-05-16T08:13:12.421Z,11.70
2018-05-16T08:14:12.459Z,12.50
2018-05-16T08:15:12.493Z,12.40
2018-05-16T08:16:12.533Z,11.90
2018-05-16T08:17:12.568Z,11.50
2018-05-16T08:18:12.602Z,13.00
2018-05-16T08:19:12.839Z,12.00
2018-05-16T08:20:12.673Z,11.60
2018-05-16T08:21:12.708Z,11.70
2018-05-16T08:22:12.744Z,13.00
2018-05-16T08:23:12.781Z,11.70
2018-05-16T08:24:12.818Z,11.50
2018-05-16T08:25:12.855Z,10.60
2018-05-16T08:26:12.889Z,11.30
2018-05-16T08:27:12.923Z,11.50
2018-05-16T08:28:12.959Z,11.30
2018-05-16T08:29:12.996Z,11.10
2018-05-16T08:30:13.031Z,11.80
2018-05-16T08:31:13.161Z,11.70
2018-05-16T08:32:13.110Z,12.40
2018-05-16T08:33:13.138Z,11.30
2018-05-16T08:34:13.175Z,11.20
2018-05-16T08:35:13.210Z,11.10
2018-05-16T08:36:13.245Z,11.60
2018-05-16T08:37:13.284Z,11.50
2018-05-16T08:38:13.317Z,11.80
2018-05-16T08:39:13.353Z,10.60
2018-05-16T08:40:13.389Z,11.30
2018-05-16T08:41:13.426Z,11.10
2018-05-16T08:42:13.459Z,11.10
2018-05-16T08:43:13.495Z,12.50
2018-05-16T08:44:13.530Z,11.80
2018-05-16T08:45:13.567Z,11.50
2018-05-16T08:46:13.602Z,10.00
2018-05-16T08:47:13.637Z,10.00
2018-05-16T08:48:13.673Z,10.50
2018-05-16T08:49:13.710Z,11.30
2018-05-16T08:50:13.768Z,12.70
2018-05-16T08:51:13.781Z,11.80
2018-05-16T08:52:13.817Z,13.20
2018-05-16T08:53:13.852Z,11.10
2018-05-16T08:54:13.887Z,10.40
2018-05-16T08:55:13.923Z,11.00
2018-05-16T08:56:13.957Z,10.40
2018-05-16T08:57:13.994Z,13.60
2018-05-16T08:58:14.030Z,10.80
2018-05-16T08:59:14.064Z,11.30
2018-05-16T09:00:14.099Z,12.20
2018-05-16T09:01:14.160Z,11.10
2018-05-16T09:02:14.194Z,11.10
2018-05-16T09:03:14.205Z,10.40
2018-05-16T09:04:14.242Z,11.50
2018-05-16T09:05:14.276Z,11.30
2018-05-16T09:06:14.313Z,10.30
2018-05-16T09:07:14.348Z,11.70
2018-05-16T09:08:14.383Z,10.40
2018-05-16T09:09:14.419Z,11.40
2018-05-16T09:10:14.456Z,10.70
2018-05-16T09:11:14.487Z,11.60
2018-05-16T09:12:14.524Z,11.20
2018-05-16T09:13:14.559Z,11.40
2018-05-16T09:14:14.616Z,12.40
2018-05-16T09:15:14.647Z,10.60
2018-05-16T09:16:14.663Z,11.90
2018-05-16T09:17:14.775Z,12.20
2018-05-16T09:18:14.735Z,11.90
2018-05-16T09:19:14.787Z,11.40
2018-05-16T09:20:14.803Z,11.40
2018-05-16T09:21:14.839Z,11.80
2018-05-16T09:22:14.873Z,10.00
2018-05-16T09:23:14.907Z,9.40
2018-05-16T09:24:14.946Z,10.10
2018-05-16T09:25:15.060Z,10.50
2018-05-16T09:26:15.013Z,12.00
2018-05-16T09:27:15.067Z,9.80
2018-05-16T09:28:15.082Z,9.10
2018-05-16T09:29:15.440Z,9.50
2018-05-16T09:30:15.170Z,9.00
2018-05-16T09:31:15.186Z,8.40
2018-05-16T09:32:15.220Z,10.60
2018-05-16T09:33:15.256Z,11.60
2018-05-16T09:34:15.289Z,10.30
2018-05-16T09:35:15.324Z,10.00
2018-05-16T09:36:15.382Z,11.20
2018-05-16T09:37:15.394Z,9.70
2018-05-16T09:38:15.429Z,10.80
2018-05-16T09:39:15.462Z,10.60
2018-05-16T09:40:15.526Z,11.70
2018-05-16T09:41:15.531Z,12.20
2018-05-16T09:42:15.565Z,11.70
2018-05-16T09:43:15.603Z,12.50
2018-05-16T09:44:16.039Z,12.40
2018-05-16T09:45:15.994Z,12.10
2018-05-16T09:46:15.704Z,14.10
2018-05-16T09:47:15.736Z,10.90
2018-05-16T09:48:15.793Z,11.00
2018-05-16T09:49:15.831Z,11.20
2018-05-16T09:50:15.863Z,12.20
2018-05-16T09:51:16.076Z,12.40
2018-05-16T09:52:15.932Z,12.30
2018-05-16T09:53:15.962Z,10.40
2018-05-16T09:54:15.995Z,12.00
2018-05-16T09:55:16.013Z,12.50
2018-05-16T09:56:16.048Z,11.60
2018-05-16T09:57:16.083Z,13.00
2018-05-16T09:58:16.134Z,12.40
2018-05-16T09:59:16.162Z,11.70
2018-05-16T10:00:16.188Z,10.20
2018-05-16T10:01:16.225Z,11.30
2018-05-16T10:02:16.261Z,12.80
2018-05-16T10:03:16.315Z,11.40
2018-05-16T10:04:16.352Z,12.20
2018-05-16T10:05:16.369Z,12.10
2018-05-16T10:06:16.405Z,11.80
2018-05-16T10:07:16.459Z,11.90
2018-05-16T10:08:16.476Z,11.30
2018-05-16T10:09:16.516Z,10.80
2018-05-16T10:10:16.569Z,11.80
2018-05-16T10:11:16.587Z,11.60
2018-05-16T10:12:16.623Z,10.80
2018-05-16T10:13:16.660Z,12.00
2018-05-16T10:14:16.697Z,11.30
2018-05-16T10:15:16.734Z,11.90
2018-05-16T10:16:16.771Z,12.40
2018-05-16T10:17:16.808Z,11.90
2018-05-16T10:18:19.670Z,13.40
2018-05-16T10:19:16.882Z,11.80
2018-05-16T10:20:16.950Z,11.70
2018-05-16T10:21:16.955Z,14.40
2018-05-16T10:22:16.992Z,11.10
2018-05-16T10:23:17.031Z,10.60
2018-05-16T10:24:17.067Z,12.60
2018-05-16T10:25:17.107Z,11.50
2018-05-16T10:26:17.143Z,12.80
2018-05-16T10:27:17.179Z,11.30
2018-05-16T10:28:17.216Z,11.60
2018-05-16T10:29:17.255Z,12.90
2018-05-16T10:30:17.292Z,12.10
2018-05-16T10:31:17.329Z,10.90
2018-05-16T10:32:17.368Z,11.40
2018-05-16T10:33:17.413Z,12.10
2018-05-16T10:34:17.579Z,12.00
2018-05-16T10:35:17.482Z,12.50
2018-05-16T10:36:17.521Z,11.40
2018-05-16T10:37:17.559Z,11.60
2018-05-16T10:38:17.601Z,11.80
2018-05-16T10:39:17.635Z,12.10
2018-05-16T10:40:17.673Z,13.40
2018-05-16T10:41:17.751Z,12.10
2018-05-16T10:42:17.751Z,11.40
2018-05-16T10:43:17.788Z,11.30
2018-05-16T10:44:17.828Z,12.40
2018-05-16T10:45:17.868Z,13.10
2018-05-16T10:46:17.905Z,12.20
2018-05-16T10:47:17.941Z,11.60
2018-05-16T10:48:17.980Z,11.60
2018-05-16T10:49:18.019Z,12.80
2018-05-16T10:50:18.057Z,12.70
2018-05-16T10:51:18.094Z,15.10
2018-05-16T10:52:18.222Z,13.10
2018-05-16T10:53:18.172Z,13.30
2018-05-16T10:54:18.210Z,12.90
2018-05-16T10:55:18.248Z,12.80
2018-05-16T10:56:18.286Z,13.50
2018-05-16T10:57:18.397Z,14.10
2018-05-16T10:58:18.366Z,13.40
2018-05-16T10:59:18.401Z,13.60
2018-05-16T11:00:18.439Z,14.10
2018-05-16T11:01:18.478Z,12.30
2018-05-16T11:02:18.518Z,14.20
2018-05-16T11:03:18.652Z,14.10
2018-05-16T11:04:18.594Z,13.40
2018-05-16T11:05:18.635Z,13.70
2018-05-16T11:06:18.670Z,14.20
2018-05-16T11:07:18.709Z,13.90
2018-05-16T11:08:18.751Z,13.90
2018-05-16T11:09:18.789Z,13.70
2018-05-16T11:10:18.826Z,15.40
2018-05-16T11:11:18.864Z,13.90
2018-05-16T11:12:18.906Z,13.60
2018-05-16T11:13:18.948Z,13.20
2018-05-16T11:14:18.987Z,14.70
2018-05-16T11:15:19.027Z,14.80
2018-05-16T11:16:19.077Z,13.90
2018-05-16T11:17:19.110Z,14.30
2018-05-16T11:18:19.152Z,14.20
2018-05-16T11:19:19.192Z,15.40
2018-05-16T11:20:19.238Z,13.90
2018-05-16T11:21:19.367Z,15.00
2018-05-16T11:22:19.315Z,15.30
2018-05-16T11:23:19.356Z,15.80
2018-05-16T11:24:19.398Z,15.90
2018-05-16T11:25:19.438Z,15.60
2018-05-16T11:26:19.480Z,15.20
2018-05-16T11:27:19.519Z,14.70
2018-05-16T11:28:19.561Z,14.60
2018-05-16T11:29:19.609Z,14.70
2018-05-16T11:30:19.641Z,14.00
2018-05-16T11:31:19.683Z,17.50
2018-05-16T11:32:19.725Z,15.00
2018-05-16T11:33:19.763Z,15.50
2018-05-16T11:34:19.803Z,15.30
2018-05-16T11:35:19.842Z,15.80
2018-05-16T11:36:19.881Z,17.20
2018-05-16T11:37:19.924Z,19.20
2018-05-16T11:38:19.964Z,16.30
2018-05-16T11:39:20.002Z,16.10
2018-05-16T11:40:20.044Z,14.50
2018-05-16T11:41:20.082Z,15.40
2018-05-16T11:42:20.135Z,15.30
2018-05-16T11:43:20.163Z,13.60
2018-05-16T11:44:20.200Z,14.50
2018-05-16T11:45:20.241Z,16.20
2018-05-16T11:46:20.280Z,15.30
2018-05-16T11:47:20.319Z,16.60
2018-05-16T11:48:20.360Z,16.10
2018-05-16T11:49:20.398Z,16.00
2018-05-16T11:50:20.438Z,15.90
2018-05-16T11:51:20.477Z,15.40
2018-05-16T11:52:20.519Z,16.10
2018-05-16T11:53:20.556Z,14.80
2018-05-16T11:54:20.595Z,14.90
2018-05-16T11:55:20.634Z,15.20
2018-05-16T11:56:20.674Z,15.20
2018-05-16T11:57:20.715Z,16.00
2018-05-16T11:58:20.755Z,15.90
2018-05-16T11:59:20.905Z,14.90
2018-05-16T12:00:20.832Z,13.70
2018-05-16T12:01:20.872Z,13.20
2018-05-16T12:02:20.911Z,13.60
2018-05-16T12:03:20.948Z,13.70
2018-05-16T12:04:20.988Z,14.90
2018-05-16T12:05:21.028Z,14.10
2018-05-16T12:06:21.070Z,11.60
2018-05-16T12:07:21.104Z,11.10
2018-05-16T12:08:21.149Z,10.60
2018-05-16T12:09:21.182Z,10.70
2018-05-16T12:10:21.221Z,15.00
2018-05-16T12:11:21.269Z,14.80
2018-05-16T12:12:21.299Z,15.60
2018-05-16T12:13:21.336Z,16.30
2018-05-16T12:14:21.377Z,15.80
2018-05-16T12:15:21.414Z,16.60
2018-05-16T12:16:21.452Z,16.40
2018-05-16T12:17:21.491Z,17.20
2018-05-16T12:18:21.530Z,15.20
2018-05-16T12:19:21.569Z,15.70
2018-05-16T12:20:21.604Z,16.20
2018-05-16T12:21:21.642Z,13.80
2018-05-16T12:22:21.681Z,14.40
2018-05-16T12:23:21.720Z,12.90
2018-05-16T12:24:21.758Z,13.10
2018-05-16T12:25:21.795Z,11.70
2018-05-16T12:26:21.839Z,12.30
2018-05-16T12:27:21.873Z,10.60
2018-05-16T12:28:21.910Z,9.10
2018-05-16T12:29:21.987Z,9.90
2018-05-16T12:30:21.987Z,9.10
2018-05-16T12:31:22.025Z,9.70
2018-05-16T12:32:22.064Z,9.10
2018-05-16T12:33:22.102Z,10.40
2018-05-16T12:34:22.140Z,9.70
2018-05-16T12:35:22.178Z,10.10
2018-05-16T12:36:22.216Z,9.60
2018-05-16T12:37:22.261Z,9.30
2018-05-16T12:38:22.295Z,9.50
2018-05-16T12:39:22.333Z,9.10
2018-05-16T12:40:22.372Z,10.70
2018-05-16T12:41:22.411Z,9.90
2018-05-16T12:42:22.452Z,8.50
2018-05-16T12:43:22.487Z,8.50
2018-05-16T12:44:22.525Z,8.20
2018-05-16T12:45:22.568Z,10.20
2018-05-16T12:46:22.604Z,9.60
2018-05-16T12:47:22.642Z,9.50
2018-05-16T12:48:22.680Z,8.80
2018-05-16T12:49:22.726Z,10.00
2018-05-16T12:50:22.759Z,9.80
2018-05-16T12:51:22.800Z,9.10
2018-05-16T12:52:22.839Z,9.10
2018-05-16T12:53:22.877Z,9.40
2018-05-16T12:54:22.924Z,8.20
2018-05-16T12:55:22.955Z,9.40
2018-05-16T12:56:22.995Z,9.00
2018-05-16T12:57:23.035Z,9.20
2018-05-16T12:58:23.076Z,9.60
2018-05-16T12:59:23.115Z,9.20
2018-05-16T13:00:23.155Z,8.40
2018-05-16T13:01:23.199Z,8.50
2018-05-16T13:02:23.238Z,8.30
2018-05-16T13:03:23.277Z,8.60
2018-05-16T13:04:23.320Z,8.50
2018-05-16T13:05:23.360Z,8.70
2018-05-16T13:06:23.402Z,8.60
2018-05-16T13:07:23.528Z,8.00
2018-05-16T13:08:23.485Z,7.00
2018-05-16T13:09:23.529Z,7.20
2018-05-16T13:10:23.569Z,7.20
2018-05-16T13:11:23.610Z,7.70
2018-05-16T13:12:23.651Z,7.10
2018-05-16T13:13:23.695Z,5.90
2018-05-16T13:14:23.738Z,6.40
2018-05-16T13:15:23.781Z,6.60
2018-05-16T13:16:23.824Z,6.50
2018-05-16T13:17:23.872Z,6.30
2018-05-16T13:18:23.909Z,6.00
2018-05-16T13:19:23.953Z,7.00
2018-05-16T13:20:24.000Z,6.50
2018-05-16T13:21:24.063Z,6.10